Wind From: 11-12-2017 06:00 Until: 12-12-2017 06:00 warning for: Wind Level: Orange info button

Power and phone distribution networks may be disrupted for relatively long periods., Roofs and chimneys can be damaged. , Tree branches may break. , Vehicles can be deported. , Traffic may be disrupted, particularly on secondary roads in forest areas. Limit your trips. , Limit your speed in highway driving, especially if you drive a vehicle or hitch sensitive to wind. , Do not go for walks in forests or along the coast., In town, be vigilant against possible falling objects., Do not work on roofs and do not touch any electrical line fallen on the ground., Store or secure sensitive objects to wind or likely to be damaged., Always install power generators outside buildings. 


Meteo18 Weather Cam more information Meteo18 Weather Cam


Thunder radar more information blitzortung!


Rain radar more information rain snow radar


Visit our other weather sites:

Template documentation
and downloads

And another site



Weather Underground History page Text

Daily Summary for February 27, 2016 Units:  Metric    English   Both
« Previous Day
Next Day »
Daily Weekly Monthly Yearly Custom
  High: Low: Average:
Temperature: 10.1 °C -2.1 °C 3.8 °C
Dew Point: 4.9 °C -3.2 °C 0.9 °C
Humidity: 94 % 68 % 82 %
Wind Speed: 16.1 km/h 0.0 km/h 2.9 km/h
Wind Gust: 20.9 km/h - -
Wind:- - ENE
Pressure: 1001.9 hPa 997.9 hPa -
Precipitation: 0.0 mm    
Historical Graphs
 
 
Tabular Data for February 27, 2016
Time Temperature Dew Point Pressure Wind Wind Speed Wind Gust Humidity Rainfall Rate (Hourly)
00:02 -0.9 °C -3.1 °C 1000.9 hPa Calm   1.6 km/h 85 % 0.0 mm
00:12 -0.9 °C -3.1 °C 1000.6 hPa Calm   1.6 km/h 85 % 0.0 mm
00:17 -0.9 °C -3.1 °C 1000.6 hPa Calm   1.6 km/h 85 % 0.0 mm
00:22 -0.9 °C -2.9 °C 1000.6 hPa Calm   1.6 km/h 86 % 0.0 mm
00:27 -0.9 °C -2.9 °C 1000.6 hPa Calm   1.6 km/h 86 % 0.0 mm
00:32 -0.9 °C -2.9 °C 1000.6 hPa NE 1.6 km/h 1.6 km/h 86 % 0.0 mm
00:37 -0.7 °C -2.9 °C 1000.6 hPa Calm   1.6 km/h 85 % 0.0 mm
00:42 -0.6 °C -2.8 °C 1000.6 hPa NNE 1.6 km/h 6.4 km/h 85 % 0.0 mm
00:57 -0.4 °C -2.8 °C 1000.2 hPa NNE 1.6 km/h 6.4 km/h 84 % 0.0 mm
01:02 -0.3 °C -2.8 °C 1000.2 hPa NNE 1.6 km/h 4.8 km/h 83 % 0.0 mm
01:07 -0.3 °C -2.8 °C 1000.2 hPa Calm   6.4 km/h 83 % 0.0 mm
01:12 -0.4 °C -2.8 °C 999.9 hPa Calm   6.4 km/h 84 % 0.0 mm
01:17 -0.4 °C -2.8 °C 999.9 hPa Calm   4.8 km/h 84 % 0.0 mm
01:22 -0.4 °C -2.9 °C 999.9 hPa North 1.6 km/h 4.8 km/h 83 % 0.0 mm
01:27 -0.4 °C -2.9 °C 999.9 hPa Calm   4.8 km/h 83 % 0.0 mm
01:32 -0.5 °C -2.9 °C 999.9 hPa Calm   4.8 km/h 84 % 0.0 mm
01:37 -0.6 °C -3.0 °C 999.9 hPa Calm   4.8 km/h 84 % 0.0 mm
01:42 -0.6 °C -3.0 °C 999.5 hPa NNE 1.6 km/h 3.2 km/h 84 % 0.0 mm
01:47 -0.5 °C -2.9 °C 999.5 hPa Calm   4.8 km/h 84 % 0.0 mm
01:52 -0.6 °C -2.8 °C 999.5 hPa Calm   8.0 km/h 85 % 0.0 mm
01:57 -0.6 °C -2.8 °C 999.5 hPa Calm   8.0 km/h 85 % 0.0 mm
02:02 -0.7 °C -2.9 °C 999.5 hPa Calm   4.8 km/h 85 % 0.0 mm
02:07 -0.6 °C -2.7 °C 999.5 hPa SE 1.6 km/h 4.8 km/h 86 % 0.0 mm
02:12 -0.6 °C -2.8 °C 999.5 hPa Calm   4.8 km/h 85 % 0.0 mm
02:17 -0.7 °C -2.7 °C 999.5 hPa Calm   6.4 km/h 86 % 0.0 mm
02:22 -0.8 °C -2.7 °C 999.5 hPa ENE 1.6 km/h 6.4 km/h 87 % 0.0 mm
02:27 -1.0 °C -2.7 °C 999.5 hPa Calm   6.4 km/h 88 % 0.0 mm
02:37 -1.3 °C -2.9 °C 999.5 hPa NE 1.6 km/h 6.4 km/h 89 % 0.0 mm
02:42 -1.3 °C -2.9 °C 999.5 hPa SE 1.6 km/h 6.4 km/h 89 % 0.0 mm
02:47 -1.4 °C -3.0 °C 999.5 hPa Calm   4.8 km/h 89 % 0.0 mm
02:52 -1.6 °C -3.2 °C 999.2 hPa Calm   4.8 km/h 89 % 0.0 mm
02:57 -1.7 °C -3.1 °C 999.2 hPa Calm   3.2 km/h 90 % 0.0 mm
03:02 -1.8 °C -3.2 °C 999.2 hPa Calm   3.2 km/h 90 % 0.0 mm
03:12 -1.9 °C -3.2 °C 998.9 hPa Calm   3.2 km/h 91 % 0.0 mm
03:17 -1.8 °C -3.1 °C 998.5 hPa Calm   1.6 km/h 91 % 0.0 mm
03:22 -1.9 °C -3.2 °C 998.5 hPa Calm   1.6 km/h 91 % 0.0 mm
03:27 -1.9 °C -3.0 °C 998.5 hPa Calm   1.6 km/h 92 % 0.0 mm
03:32 -1.9 °C -3.0 °C 998.5 hPa Calm   1.6 km/h 92 % 0.0 mm
03:37 -1.9 °C -3.0 °C 998.5 hPa Calm   1.6 km/h 92 % 0.0 mm
03:42 -1.9 °C -3.0 °C 998.5 hPa Calm   1.6 km/h 92 % 0.0 mm
03:47 -1.9 °C -3.0 °C 998.5 hPa Calm   1.6 km/h 92 % 0.0 mm
03:52 -1.9 °C -3.0 °C 998.2 hPa Calm   1.6 km/h 92 % 0.0 mm
03:57 -1.9 °C -3.0 °C 998.2 hPa ENE 1.6 km/h   92 % 0.0 mm
04:02 -1.9 °C -3.0 °C 998.2 hPa Calm   1.6 km/h 92 % 0.0 mm
04:07 -1.8 °C -2.9 °C 998.2 hPa Calm   1.6 km/h 92 % 0.0 mm
04:12 -1.7 °C -2.8 °C 998.5 hPa SE 1.6 km/h 1.6 km/h 92 % 0.0 mm
04:22 -1.7 °C -3.0 °C 998.2 hPa Calm   4.8 km/h 91 % 0.0 mm
04:27 -1.8 °C -2.9 °C 998.2 hPa Calm   4.8 km/h 92 % 0.0 mm
04:32 -1.8 °C -2.9 °C 998.2 hPa Calm   4.8 km/h 92 % 0.0 mm
04:37 -1.8 °C -2.9 °C 998.2 hPa Calm   1.6 km/h 92 % 0.0 mm
04:42 -1.8 °C -2.9 °C 998.2 hPa Calm   1.6 km/h 92 % 0.0 mm
04:47 -1.8 °C -2.8 °C 998.2 hPa Calm   1.6 km/h 93 % 0.0 mm
05:02 -1.8 °C -2.8 °C 998.2 hPa Calm   3.2 km/h 93 % 0.0 mm
05:12 -1.9 °C -2.9 °C 998.2 hPa Calm   3.2 km/h 93 % 0.0 mm
05:17 -2.0 °C -3.0 °C 998.2 hPa Calm   3.2 km/h 93 % 0.0 mm
05:27 -2.0 °C -3.0 °C 998.2 hPa Calm   1.6 km/h 93 % 0.0 mm
05:32 -2.1 °C -3.1 °C 998.2 hPa Calm   1.6 km/h 93 % 0.0 mm
05:37 -2.0 °C -2.8 °C 998.2 hPa Calm   1.6 km/h 94 % 0.0 mm
05:42 -1.9 °C -2.7 °C 998.2 hPa Calm     94 % 0.0 mm
05:47 -1.9 °C -2.9 °C 997.9 hPa Calm     93 % 0.0 mm
05:52 -2.0 °C -2.8 °C 997.9 hPa Calm   1.6 km/h 94 % 0.0 mm
05:57 -1.9 °C -2.7 °C 997.9 hPa Calm   1.6 km/h 94 % 0.0 mm
06:02 -1.8 °C -2.6 °C 997.9 hPa Calm   1.6 km/h 94 % 0.0 mm
06:12 -1.9 °C -2.9 °C 997.9 hPa Calm   1.6 km/h 93 % 0.0 mm
06:17 -1.9 °C -2.7 °C 997.9 hPa Calm   1.6 km/h 94 % 0.0 mm
06:32 -1.9 °C -2.7 °C 997.9 hPa Calm   1.6 km/h 94 % 0.0 mm
06:37 -1.9 °C -2.7 °C 998.2 hPa Calm   3.2 km/h 94 % 0.0 mm
06:42 -2.0 °C -2.8 °C 998.2 hPa Calm   3.2 km/h 94 % 0.0 mm
06:47 -2.0 °C -2.8 °C 998.2 hPa Calm   3.2 km/h 94 % 0.0 mm
06:52 -1.9 °C -2.7 °C 998.2 hPa Calm   1.6 km/h 94 % 0.0 mm
06:57 -1.8 °C -2.6 °C 998.2 hPa Calm   1.6 km/h 94 % 0.0 mm
07:02 -1.9 °C -2.7 °C 998.2 hPa Calm   1.6 km/h 94 % 0.0 mm
07:12 -1.7 °C -2.5 °C 998.2 hPa Calm   1.6 km/h 94 % 0.0 mm
07:22 -1.6 °C -2.4 °C 997.9 hPa Calm   4.8 km/h 94 % 0.0 mm
07:32 -1.7 °C -2.5 °C 998.2 hPa SE 1.6 km/h 3.2 km/h 94 % 0.0 mm
07:37 -1.6 °C -2.4 °C 998.2 hPa Calm   3.2 km/h 94 % 0.0 mm
07:42 -1.6 °C -2.4 °C 998.2 hPa Calm   3.2 km/h 94 % 0.0 mm
07:47 -1.6 °C -2.4 °C 998.2 hPa Calm   3.2 km/h 94 % 0.0 mm
07:52 -1.6 °C -2.4 °C 998.2 hPa Calm   3.2 km/h 94 % 0.0 mm
08:02 -1.4 °C -2.2 °C 998.2 hPa NE 1.6 km/h 1.6 km/h 94 % 0.0 mm
08:12 -1.2 °C -2.0 °C 998.2 hPa Calm   3.2 km/h 94 % 0.0 mm
08:17 -1.0 °C -1.8 °C 998.2 hPa Calm   4.8 km/h 94 % 0.0 mm
08:22 -0.9 °C -1.7 °C 998.2 hPa Calm   4.8 km/h 94 % 0.0 mm
08:32 -0.6 °C -1.4 °C 998.5 hPa NNE 1.6 km/h 4.8 km/h 94 % 0.0 mm
08:42 -0.2 °C -1.2 °C 998.5 hPa NE 1.6 km/h 3.2 km/h 93 % 0.0 mm
08:47 -0.1 °C -1.2 °C 998.5 hPa Calm   3.2 km/h 92 % 0.0 mm
08:52 0.2 °C -0.9 °C 998.5 hPa Calm   3.2 km/h 92 % 0.0 mm
09:02 0.5 °C -0.8 °C 998.5 hPa Calm   4.8 km/h 91 % 0.0 mm
09:07 0.7 °C -0.8 °C 998.5 hPa Calm   6.4 km/h 90 % 0.0 mm
09:17 1.0 °C -0.5 °C 998.9 hPa NE 1.6 km/h 6.4 km/h 90 % 0.0 mm
09:22 1.2 °C -0.4 °C 998.9 hPa Calm   6.4 km/h 89 % 0.0 mm
09:32 1.6 °C 0.0 °C 998.9 hPa NE 3.2 km/h 4.8 km/h 89 % 0.0 mm
09:37 1.9 °C 0.0 °C 998.9 hPa ENE 1.6 km/h 4.8 km/h 87 % 0.0 mm
09:42 2.1 °C 0.3 °C 998.9 hPa NE 3.2 km/h 4.8 km/h 88 % 0.0 mm
09:52 2.4 °C 0.5 °C 998.9 hPa Calm   6.4 km/h 87 % 0.0 mm
09:57 2.6 °C 0.7 °C 998.9 hPa East 1.6 km/h 6.4 km/h 87 % 0.0 mm
10:02 2.8 °C 0.7 °C 998.9 hPa ENE 1.6 km/h 6.4 km/h 86 % 0.0 mm
10:07 3.0 °C 0.9 °C 998.9 hPa Calm   8.0 km/h 86 % 0.0 mm
10:12 3.2 °C 0.9 °C 998.9 hPa East 1.6 km/h 8.0 km/h 85 % 0.0 mm
10:17 3.4 °C 1.1 °C 998.9 hPa Calm   9.7 km/h 85 % 0.0 mm
10:22 3.7 °C 1.2 °C 998.9 hPa ENE 3.2 km/h 9.7 km/h 84 % 0.0 mm
10:27 3.9 °C 1.3 °C 998.9 hPa NNE 1.6 km/h 9.7 km/h 83 % 0.0 mm
10:32 4.2 °C 1.4 °C 998.9 hPa NE 3.2 km/h 8.0 km/h 82 % 0.0 mm
10:37 4.3 °C 1.5 °C 998.9 hPa Calm   8.0 km/h 82 % 0.0 mm
10:42 4.3 °C 1.5 °C 998.9 hPa NNW 6.4 km/h 11.3 km/h 82 % 0.0 mm
10:47 4.4 °C 1.4 °C 998.9 hPa NE 1.6 km/h 11.3 km/h 81 % 0.0 mm
10:52 4.6 °C 1.6 °C 998.9 hPa North 1.6 km/h 11.3 km/h 81 % 0.0 mm
10:57 4.7 °C 1.7 °C 999.2 hPa NNE 1.6 km/h 8.0 km/h 81 % 0.0 mm
11:02 5.1 °C 2.1 °C 999.2 hPa Calm   8.0 km/h 81 % 0.0 mm
11:12 5.4 °C 2.4 °C 999.2 hPa Calm   8.0 km/h 81 % 0.0 mm
11:17 5.5 °C 2.1 °C 999.2 hPa Calm   6.4 km/h 79 % 0.0 mm
11:22 5.6 °C 2.4 °C 999.2 hPa NE 3.2 km/h 6.4 km/h 80 % 0.0 mm
11:27 5.7 °C 2.7 °C 999.2 hPa ENE 4.8 km/h 11.3 km/h 81 % 0.0 mm
11:37 5.9 °C 2.7 °C 999.2 hPa NNE 1.6 km/h 11.3 km/h 80 % 0.0 mm
11:42 6.2 °C 2.8 °C 999.5 hPa East 3.2 km/h 12.9 km/h 79 % 0.0 mm
11:47 6.3 °C 2.9 °C 999.2 hPa Calm   12.9 km/h 79 % 0.0 mm
11:52 6.5 °C 3.1 °C 999.2 hPa NE 1.6 km/h 12.9 km/h 79 % 0.0 mm
11:57 6.6 °C 3.4 °C 999.2 hPa Calm   9.7 km/h 80 % 0.0 mm
12:02 6.7 °C 3.1 °C 999.2 hPa NE 1.6 km/h 9.7 km/h 78 % 0.0 mm
12:07 6.8 °C 3.4 °C 998.9 hPa Calm   9.7 km/h 79 % 0.0 mm
12:12 6.9 °C 3.5 °C 998.9 hPa South 1.6 km/h 9.7 km/h 79 % 0.0 mm
12:17 7.2 °C 3.6 °C 998.9 hPa Calm   8.0 km/h 78 % 0.0 mm
12:22 7.4 °C 3.4 °C 999.2 hPa ENE 4.8 km/h 8.0 km/h 76 % 0.0 mm
12:37 8.0 °C 4.0 °C 998.9 hPa NE 1.6 km/h 8.0 km/h 76 % 0.0 mm
12:42 8.2 °C 4.2 °C 998.9 hPa ENE 1.6 km/h 12.9 km/h 76 % 0.0 mm
12:47 8.3 °C 4.3 °C 998.9 hPa NE 4.8 km/h 12.9 km/h 76 % 0.0 mm
12:57 8.2 °C 4.0 °C 998.9 hPa ENE 4.8 km/h 11.3 km/h 75 % 0.0 mm
13:02 8.3 °C 3.9 °C 998.9 hPa NNE 4.8 km/h 14.5 km/h 74 % 0.0 mm
13:07 8.4 °C 4.0 °C 998.9 hPa NNE 3.2 km/h 14.5 km/h 74 % 0.0 mm
13:12 8.5 °C 4.1 °C 998.9 hPa NNE 3.2 km/h 14.5 km/h 74 % 0.0 mm
13:17 8.6 °C 4.2 °C 998.9 hPa NNE 4.8 km/h 12.9 km/h 74 % 0.0 mm
13:22 8.6 °C 4.0 °C 998.9 hPa NNE 11.3 km/h 16.1 km/h 73 % 0.0 mm
13:27 8.7 °C 4.1 °C 998.9 hPa ENE 1.6 km/h 16.1 km/h 73 % 0.0 mm
13:32 8.8 °C 4.2 °C 998.9 hPa ENE 1.6 km/h 16.1 km/h 73 % 0.0 mm
13:37 9.0 °C 4.4 °C 998.9 hPa NNE 16.1 km/h 16.1 km/h 73 % 0.0 mm
13:42 9.1 °C 4.3 °C 998.9 hPa East 3.2 km/h 16.1 km/h 72 % 0.0 mm
13:47 9.1 °C 4.5 °C 998.5 hPa ENE 6.4 km/h 16.1 km/h 73 % 0.0 mm
13:52 9.2 °C 4.8 °C 998.5 hPa Calm   16.1 km/h 74 % 0.0 mm
13:57 9.3 °C 4.5 °C 998.5 hPa SE 3.2 km/h 12.9 km/h 72 % 0.0 mm
14:02 9.3 °C 4.3 °C 998.5 hPa NNE 11.3 km/h 12.9 km/h 71 % 0.0 mm
14:07 9.3 °C 4.1 °C 998.5 hPa NNE 4.8 km/h 12.9 km/h 70 % 0.0 mm
14:12 9.3 °C 4.1 °C 998.5 hPa SE 3.2 km/h 16.1 km/h 70 % 0.0 mm
14:17 9.3 °C 4.3 °C 998.5 hPa NNE 9.7 km/h 16.1 km/h 71 % 0.0 mm
14:22 9.3 °C 4.3 °C 998.5 hPa NNE 8.0 km/h 16.1 km/h 71 % 0.0 mm
14:27 9.4 °C 4.4 °C 998.5 hPa ENE 1.6 km/h 12.9 km/h 71 % 0.0 mm
14:32 9.4 °C 4.0 °C 998.5 hPa NNE 3.2 km/h 14.5 km/h 69 % 0.0 mm
14:37 9.6 °C 4.6 °C 998.5 hPa ENE 11.3 km/h 14.5 km/h 71 % 0.0 mm
14:42 9.6 °C 4.6 °C 998.2 hPa North 6.4 km/h 19.3 km/h 71 % 0.0 mm
14:47 9.7 °C 4.7 °C 998.2 hPa NE 1.6 km/h 19.3 km/h 71 % 0.0 mm
14:52 9.7 °C 4.1 °C 998.5 hPa NNE 4.8 km/h 17.7 km/h 68 % 0.0 mm
14:57 9.7 °C 4.7 °C 998.5 hPa NE 1.6 km/h 17.7 km/h 71 % 0.0 mm
15:02 9.7 °C 4.7 °C 998.5 hPa East 3.2 km/h 14.5 km/h 71 % 0.0 mm
15:12 9.7 °C 4.3 °C 998.5 hPa North 8.0 km/h 12.9 km/h 69 % 0.0 mm
15:17 9.7 °C 4.7 °C 998.5 hPa NNE 4.8 km/h 12.9 km/h 71 % 0.0 mm
15:22 9.7 °C 4.5 °C 998.5 hPa ENE 4.8 km/h 12.9 km/h 70 % 0.0 mm
15:27 9.8 °C 4.4 °C 998.5 hPa NNE 4.8 km/h 12.9 km/h 69 % 0.0 mm
15:32 10.1 °C 4.9 °C 998.5 hPa North 6.4 km/h 12.9 km/h 70 % 0.0 mm
15:37 10.1 °C 4.7 °C 998.9 hPa NE 8.0 km/h 12.9 km/h 69 % 0.0 mm
15:42 10.1 °C 4.9 °C 998.5 hPa ENE 4.8 km/h 11.3 km/h 70 % 0.0 mm
15:47 10.0 °C 4.8 °C 998.5 hPa NE 4.8 km/h 11.3 km/h 70 % 0.0 mm
15:52 9.9 °C 4.7 °C 998.5 hPa NE 3.2 km/h 12.9 km/h 70 % 0.0 mm
15:57 9.8 °C 4.4 °C 998.5 hPa ENE 9.7 km/h 17.7 km/h 69 % 0.0 mm
16:02 9.7 °C 4.5 °C 998.5 hPa NE 4.8 km/h 17.7 km/h 70 % 0.0 mm
16:12 9.6 °C 4.2 °C 998.5 hPa West 3.2 km/h 17.7 km/h 69 % 0.0 mm
16:17 9.5 °C 4.3 °C 998.5 hPa ENE 4.8 km/h 19.3 km/h 70 % 0.0 mm
16:22 9.4 °C 4.4 °C 998.5 hPa NNE 9.7 km/h 19.3 km/h 71 % 0.0 mm
16:27 9.4 °C 4.4 °C 998.5 hPa NE 8.0 km/h 19.3 km/h 71 % 0.0 mm
16:32 9.3 °C 4.3 °C 998.5 hPa NNE 9.7 km/h 16.1 km/h 71 % 0.0 mm
16:37 9.3 °C 4.1 °C 998.5 hPa ENE 4.8 km/h 16.1 km/h 70 % 0.0 mm
16:42 9.2 °C 4.2 °C 998.5 hPa NNE 6.4 km/h 17.7 km/h 71 % 0.0 mm
16:47 9.2 °C 4.2 °C 998.5 hPa ENE 1.6 km/h 17.7 km/h 71 % 0.0 mm
16:57 9.2 °C 4.0 °C 998.5 hPa ENE 1.6 km/h 19.3 km/h 70 % 0.0 mm
17:02 9.0 °C 4.0 °C 998.5 hPa East 11.3 km/h 19.3 km/h 71 % 0.0 mm
17:12 8.8 °C 3.6 °C 998.9 hPa NE 3.2 km/h 17.7 km/h 70 % 0.0 mm
17:17 8.8 °C 3.6 °C 998.9 hPa ENE 3.2 km/h 17.7 km/h 70 % 0.0 mm
17:22 8.7 °C 3.7 °C 999.2 hPa NNW 4.8 km/h 17.7 km/h 71 % 0.0 mm
17:27 8.6 °C 3.8 °C 999.2 hPa ENE 4.8 km/h 17.7 km/h 72 % 0.0 mm
17:32 8.6 °C 3.8 °C 999.2 hPa NNE 8.0 km/h 11.3 km/h 72 % 0.0 mm
17:37 8.4 °C 3.8 °C 999.2 hPa NE 11.3 km/h 11.3 km/h 73 % 0.0 mm
17:42 8.4 °C 3.8 °C 999.5 hPa East 1.6 km/h 9.7 km/h 73 % 0.0 mm
17:47 8.2 °C 3.8 °C 999.5 hPa NE 9.7 km/h 16.1 km/h 74 % 0.0 mm
17:57 8.1 °C 3.6 °C 999.5 hPa SE 3.2 km/h 16.1 km/h 73 % 0.0 mm
18:02 8.1 °C 3.6 °C 999.5 hPa ENE 1.6 km/h 14.5 km/h 73 % 0.0 mm
18:17 7.8 °C 3.6 °C 999.5 hPa North 12.9 km/h 19.3 km/h 75 % 0.0 mm
18:22 7.8 °C 3.5 °C 999.5 hPa ENE 3.2 km/h 16.1 km/h 74 % 0.0 mm
18:27 7.7 °C 3.2 °C 999.9 hPa ESE 12.9 km/h 16.1 km/h 73 % 0.0 mm
18:32 7.7 °C 3.2 °C 999.9 hPa North 9.7 km/h 20.9 km/h 73 % 0.0 mm
18:37 7.7 °C 3.2 °C 999.9 hPa NE 4.8 km/h 20.9 km/h 73 % 0.0 mm
18:42 7.6 °C 3.3 °C 999.9 hPa East 3.2 km/h 20.9 km/h 74 % 0.0 mm
18:47 7.4 °C 3.3 °C 999.9 hPa NNE 3.2 km/h 20.9 km/h 75 % 0.0 mm
18:57 7.2 °C 3.1 °C 1000.2 hPa NE 3.2 km/h 14.5 km/h 75 % 0.0 mm
19:02 7.1 °C 3.2 °C 1000.2 hPa NE 3.2 km/h 14.5 km/h 76 % 0.0 mm
19:07 6.9 °C 3.0 °C 1000.2 hPa NE 3.2 km/h 14.5 km/h 76 % 0.0 mm
19:17 6.8 °C 3.1 °C 1000.2 hPa East 1.6 km/h 16.1 km/h 77 % 0.0 mm
19:22 6.8 °C 2.9 °C 1000.2 hPa Calm   14.5 km/h 76 % 0.0 mm
19:27 6.8 °C 2.9 °C 1000.2 hPa Calm   14.5 km/h 76 % 0.0 mm
19:32 6.7 °C 2.8 °C 1000.6 hPa East 4.8 km/h 12.9 km/h 76 % 0.0 mm
19:37 6.6 °C 2.7 °C 1000.6 hPa SSE 3.2 km/h 19.3 km/h 76 % 0.0 mm
19:42 6.5 °C 2.8 °C 1000.6 hPa ENE 3.2 km/h 19.3 km/h 77 % 0.0 mm
19:47 6.4 °C 2.7 °C 1000.6 hPa NNE 4.8 km/h 19.3 km/h 77 % 0.0 mm
19:52 6.3 °C 2.6 °C 1000.6 hPa SE 1.6 km/h 14.5 km/h 77 % 0.0 mm
19:57 6.2 °C 2.5 °C 1000.6 hPa East 3.2 km/h 16.1 km/h 77 % 0.0 mm
20:02 6.2 °C 2.6 °C 1000.6 hPa NE 9.7 km/h 17.7 km/h 78 % 0.0 mm
20:07 6.1 °C 2.6 °C 1000.6 hPa ENE 6.4 km/h 17.7 km/h 78 % 0.0 mm
20:12 6.1 °C 2.6 °C 1000.6 hPa NNE 4.8 km/h 17.7 km/h 78 % 0.0 mm
20:17 6.1 °C 2.6 °C 1000.6 hPa ESE 3.2 km/h 16.1 km/h 78 % 0.0 mm
20:22 6.1 °C 2.4 °C 1000.6 hPa NE 12.9 km/h 16.1 km/h 77 % 0.0 mm
20:32 5.9 °C 2.4 °C 1000.6 hPa ENE 11.3 km/h 14.5 km/h 78 % 0.0 mm
20:37 5.9 °C 2.4 °C 1000.6 hPa East 3.2 km/h 14.5 km/h 78 % 0.0 mm
20:42 5.8 °C 2.4 °C 1000.6 hPa ENE 3.2 km/h 20.9 km/h 79 % 0.0 mm
20:47 5.7 °C 2.3 °C 1000.6 hPa East 3.2 km/h 20.9 km/h 79 % 0.0 mm
20:52 5.7 °C 2.2 °C 1000.6 hPa ENE 11.3 km/h 20.9 km/h 78 % 0.0 mm
20:57 5.6 °C 2.2 °C 1000.6 hPa NNE 3.2 km/h 19.3 km/h 79 % 0.0 mm
21:02 5.5 °C 2.1 °C 1000.6 hPa ENE 3.2 km/h 19.3 km/h 79 % 0.0 mm
21:12 5.4 °C 1.9 °C 1000.9 hPa East 1.6 km/h 19.3 km/h 78 % 0.0 mm
21:17 5.5 °C 2.0 °C 1000.9 hPa ENE 3.2 km/h 12.9 km/h 78 % 0.0 mm
21:22 5.6 °C 2.1 °C 1000.9 hPa SSE 6.4 km/h 17.7 km/h 78 % 0.0 mm
21:27 5.6 °C 2.1 °C 1000.9 hPa NE 4.8 km/h 17.7 km/h 78 % 0.0 mm
21:32 5.4 °C 1.9 °C 1000.9 hPa East 3.2 km/h 17.7 km/h 78 % 0.0 mm
21:37 5.3 °C 2.0 °C 1000.9 hPa Calm   17.7 km/h 79 % 0.0 mm
21:42 5.2 °C 1.9 °C 1001.2 hPa ENE 1.6 km/h 12.9 km/h 79 % 0.0 mm
21:47 5.3 °C 1.8 °C 1001.2 hPa ENE 9.7 km/h 16.1 km/h 78 % 0.0 mm
21:52 5.3 °C 1.8 °C 1001.2 hPa NNE 4.8 km/h 16.1 km/h 78 % 0.0 mm
21:57 5.2 °C 1.9 °C 1001.2 hPa NE 9.7 km/h 16.1 km/h 79 % 0.0 mm
22:02 5.2 °C 1.7 °C 1001.2 hPa ENE 1.6 km/h 17.7 km/h 78 % 0.0 mm
22:07 5.1 °C 1.8 °C 1001.2 hPa NE 4.8 km/h 17.7 km/h 79 % 0.0 mm
22:12 5.1 °C 1.8 °C 1001.2 hPa NE 8.0 km/h 17.7 km/h 79 % 0.0 mm
22:17 5.1 °C 1.8 °C 1001.2 hPa ENE 4.8 km/h 17.7 km/h 79 % 0.0 mm
22:27 5.0 °C 1.7 °C 1001.6 hPa ENE 6.4 km/h 17.7 km/h 79 % 0.0 mm
22:32 4.9 °C 1.6 °C 1001.6 hPa ENE 3.2 km/h 17.7 km/h 79 % 0.0 mm
22:37 5.0 °C 1.5 °C 1001.6 hPa NE 6.4 km/h 14.5 km/h 78 % 0.0 mm
22:42 5.0 °C 1.7 °C 1001.6 hPa NE 8.0 km/h 14.5 km/h 79 % 0.0 mm
22:52 4.9 °C 1.6 °C 1001.9 hPa NNE 11.3 km/h 11.3 km/h 79 % 0.0 mm
22:57 4.8 °C 1.5 °C 1001.6 hPa NE 1.6 km/h 11.3 km/h 79 % 0.0 mm
23:02 4.8 °C 1.5 °C 1001.6 hPa Calm   11.3 km/h 79 % 0.0 mm
23:12 4.3 °C 1.2 °C 1001.6 hPa North 1.6 km/h 11.3 km/h 80 % 0.0 mm
23:17 4.2 °C 1.2 °C 1001.6 hPa East 3.2 km/h 11.3 km/h 81 % 0.0 mm
23:22 4.2 °C 1.2 °C 1001.6 hPa ENE 4.8 km/h 11.3 km/h 81 % 0.0 mm
23:27 4.1 °C 1.1 °C 1001.6 hPa NE 12.9 km/h 14.5 km/h 81 % 0.0 mm
23:32 4.1 °C 1.1 °C 1001.6 hPa NE 11.3 km/h 14.5 km/h 81 % 0.0 mm
23:37 3.9 °C 0.9 °C 1001.6 hPa ENE 3.2 km/h 14.5 km/h 81 % 0.0 mm
23:42 3.8 °C 1.0 °C 1001.9 hPa ESE 3.2 km/h 19.3 km/h 82 % 0.0 mm
23:47 3.7 °C 0.9 °C 1001.9 hPa NE 6.4 km/h 19.3 km/h 82 % 0.0 mm
23:52 3.5 °C 0.9 °C 1001.9 hPa South 4.8 km/h 19.3 km/h 83 % 0.0 mm
23:57 3.5 °C 0.9 °C 1001.9 hPa ENE 8.0 km/h 17.7 km/h 83 % 0.0 mm
Meteo18
Compliments of Weather Underground - 4 mb

Script developed by  Jim McMurry - jmcmurry@mwt.net Adapted for the template by  Wim van der Kuil - Leuven-Template.eu

You find our weather info also at:

European Weather Network

Weather Underground

Equipment we use:

Weather-station
Davis Vue

Weather-program
Meteohub

Weather-server
Raspberry PI 2 B+

Provider
1 and 1

Davis Vue

Meteohub

Raspberry PI 2 B+

1 and 1